createdAt,value
2019-01-09T00:01:26.918Z,4.10
2019-01-09T00:03:55.960Z,4.10
2019-01-09T00:06:24.789Z,4.10
2019-01-09T00:08:53.753Z,4.10
2019-01-09T00:11:22.791Z,4.10
2019-01-09T00:13:51.524Z,4.10
2019-01-09T00:16:20.366Z,4.20
2019-01-09T00:18:49.067Z,4.20
2019-01-09T00:21:18.309Z,4.20
2019-01-09T00:23:47.101Z,4.20
2019-01-09T00:26:16.842Z,4.20
2019-01-09T00:28:45.622Z,4.10
2019-01-09T00:31:14.505Z,4.10
2019-01-09T00:33:43.554Z,4.10
2019-01-09T00:36:12.238Z,4.10
2019-01-09T00:38:41.067Z,4.00
2019-01-09T00:41:10.684Z,4.10
2019-01-09T00:43:39.392Z,4.10
2019-01-09T00:46:08.414Z,4.10
2019-01-09T00:48:37.418Z,4.10
2019-01-09T00:51:06.231Z,4.00
2019-01-09T00:53:35.362Z,4.10
2019-01-09T00:56:04.285Z,4.00
2019-01-09T00:58:32.984Z,4.00
2019-01-09T01:01:01.932Z,4.10
2019-01-09T01:04:02.347Z,4.10
2019-01-09T01:06:48.895Z,4.00
2019-01-09T01:10:09.861Z,4.00
2019-01-09T01:13:26.015Z,4.00
2019-01-09T01:16:44.886Z,4.00
2019-01-09T01:19:46.530Z,4.00
2019-01-09T01:22:46.860Z,4.00
2019-01-09T01:25:30.220Z,3.90
2019-01-09T01:28:16.793Z,3.90
2019-01-09T01:31:20.874Z,4.00
2019-01-09T01:34:25.142Z,4.00
2019-01-09T01:37:21.680Z,4.00
2019-01-09T01:40:15.615Z,4.00
2019-01-09T01:43:19.116Z,4.10
2019-01-09T01:46:23.020Z,4.00
2019-01-09T01:49:21.440Z,4.10
2019-01-09T01:51:58.786Z,4.00
2019-01-09T01:54:54.694Z,4.00
2019-01-09T01:58:17.114Z,4.00
2019-01-09T02:01:17.112Z,4.00
2019-01-09T02:03:56.663Z,3.90
2019-01-09T02:06:59.443Z,4.00
2019-01-09T02:10:01.731Z,4.00
2019-01-09T02:12:59.489Z,4.10
2019-01-09T02:16:06.813Z,4.00
2019-01-09T02:18:45.152Z,3.90
2019-01-09T02:21:26.788Z,3.90
2019-01-09T02:24:23.027Z,3.80
2019-01-09T02:27:11.655Z,3.80
2019-01-09T02:29:52.842Z,3.80
2019-01-09T02:32:36.811Z,3.70
2019-01-09T02:35:05.581Z,3.80
2019-01-09T02:37:34.593Z,3.80
2019-01-09T02:40:03.471Z,3.70
2019-01-09T02:42:32.231Z,3.70
2019-01-09T02:45:00.903Z,3.70
2019-01-09T02:47:29.638Z,3.70
2019-01-09T02:49:58.550Z,3.70
2019-01-09T02:52:27.215Z,3.70
2019-01-09T02:54:56.242Z,3.70
2019-01-09T02:57:25.003Z,3.70
2019-01-09T02:59:53.672Z,3.60
2019-01-09T03:02:22.366Z,3.60
2019-01-09T03:04:51.095Z,3.60
2019-01-09T03:07:20.072Z,3.60
2019-01-09T03:09:49.612Z,3.60
2019-01-09T03:12:18.577Z,3.60
2019-01-09T03:14:47.548Z,3.60
2019-01-09T03:17:16.924Z,3.60
2019-01-09T03:19:45.904Z,3.60
2019-01-09T03:22:15.469Z,3.60
2019-01-09T03:24:44.628Z,3.60
2019-01-09T03:27:13.486Z,3.60
2019-01-09T03:29:42.417Z,3.60
2019-01-09T03:32:11.468Z,3.60
2019-01-09T03:34:40.298Z,3.60
2019-01-09T03:37:08.998Z,3.60
2019-01-09T03:39:38.958Z,3.60
2019-01-09T03:42:07.713Z,3.70
2019-01-09T03:44:36.529Z,3.60
2019-01-09T03:47:05.251Z,3.60
2019-01-09T03:49:34.022Z,3.60
2019-01-09T03:52:04.115Z,3.50
2019-01-09T03:54:33.330Z,3.50
2019-01-09T03:57:02.355Z,3.50
2019-01-09T03:59:31.026Z,3.50
2019-01-09T04:02:00.046Z,3.50
2019-01-09T04:04:29.020Z,3.50
2019-01-09T04:06:57.710Z,3.50
2019-01-09T04:09:26.454Z,3.50
2019-01-09T04:11:55.197Z,3.60
2019-01-09T04:14:23.879Z,3.60
2019-01-09T04:16:52.958Z,3.50
2019-01-09T04:19:21.674Z,3.50
2019-01-09T04:21:50.394Z,3.50
2019-01-09T04:24:19.210Z,3.60
2019-01-09T04:26:47.910Z,3.60
2019-01-09T04:29:16.590Z,3.50
2019-01-09T04:31:45.365Z,3.50
2019-01-09T04:34:14.573Z,3.50
2019-01-09T04:36:51.420Z,3.60
2019-01-09T04:39:13.966Z,3.50
2019-01-09T04:41:42.681Z,3.50
2019-01-09T04:44:11.867Z,3.50
2019-01-09T04:46:40.854Z,3.50
2019-01-09T04:49:09.536Z,3.50
2019-01-09T04:51:38.220Z,3.50
2019-01-09T04:54:07.282Z,3.50
2019-01-09T04:56:35.959Z,3.50
2019-01-09T04:59:05.429Z,3.50
2019-01-09T05:01:34.526Z,3.50
2019-01-09T05:04:03.212Z,3.50
2019-01-09T05:06:31.955Z,3.50
2019-01-09T05:09:00.983Z,3.40
2019-01-09T05:11:29.692Z,3.50
2019-01-09T05:13:58.360Z,3.50
2019-01-09T05:16:27.090Z,3.50
2019-01-09T05:18:55.766Z,3.50
2019-01-09T05:21:24.423Z,3.40
2019-01-09T05:23:53.208Z,3.50
2019-01-09T05:26:22.467Z,3.50
2019-01-09T05:28:51.129Z,3.50
2019-01-09T05:31:20.170Z,3.50
2019-01-09T05:33:49.156Z,3.50
2019-01-09T05:36:18.046Z,3.50
2019-01-09T05:38:46.853Z,3.50
2019-01-09T05:41:15.544Z,3.50
2019-01-09T05:43:44.225Z,3.50
2019-01-09T05:46:13.498Z,3.50
2019-01-09T05:48:42.185Z,3.50
2019-01-09T05:51:11.098Z,3.40
2019-01-09T05:53:39.822Z,3.50
2019-01-09T05:56:08.595Z,3.40
2019-01-09T05:58:37.278Z,3.50
2019-01-09T06:01:05.971Z,3.40
2019-01-09T06:03:34.653Z,3.40
2019-01-09T06:06:03.337Z,3.40
2019-01-09T06:08:32.678Z,3.50
2019-01-09T06:11:01.567Z,3.40
2019-01-09T06:13:33.358Z,3.40
2019-01-09T06:16:02.255Z,3.40
2019-01-09T06:18:30.931Z,3.40
2019-01-09T06:20:59.911Z,3.40
2019-01-09T06:23:29.126Z,3.40
2019-01-09T06:25:57.859Z,3.40
2019-01-09T06:28:26.542Z,3.30
2019-01-09T06:30:58.374Z,3.30
2019-01-09T06:33:27.146Z,3.40
2019-01-09T06:35:55.847Z,3.40
2019-01-09T06:38:24.738Z,3.40
2019-01-09T06:40:53.438Z,3.30
2019-01-09T06:43:22.382Z,3.30
2019-01-09T06:45:51.440Z,3.20
2019-01-09T06:48:20.542Z,3.20
2019-01-09T06:50:49.500Z,3.20
2019-01-09T06:53:18.962Z,3.20
2019-01-09T06:55:47.984Z,3.20
2019-01-09T06:58:16.854Z,3.20
2019-01-09T07:00:45.978Z,3.20
2019-01-09T07:03:14.678Z,3.20
2019-01-09T07:05:43.818Z,3.20
2019-01-09T07:08:12.826Z,3.10
2019-01-09T07:10:41.573Z,3.20
2019-01-09T07:13:10.246Z,3.20
2019-01-09T07:15:39.496Z,3.20
2019-01-09T07:18:08.387Z,3.10
2019-01-09T07:20:37.107Z,3.20
2019-01-09T07:23:06.214Z,3.20
2019-01-09T07:25:35.246Z,3.10
2019-01-09T07:28:03.924Z,3.10
2019-01-09T07:30:33.094Z,3.10
2019-01-09T07:33:02.270Z,3.00
2019-01-09T07:35:31.422Z,3.00
2019-01-09T07:38:00.151Z,2.90
2019-01-09T07:40:29.320Z,2.80
2019-01-09T07:42:57.987Z,2.80
2019-01-09T07:45:26.735Z,2.80
2019-01-09T07:47:55.669Z,2.90
2019-01-09T07:50:24.810Z,2.90
2019-01-09T07:52:53.584Z,2.90
2019-01-09T07:55:22.554Z,3.00
2019-01-09T07:57:51.242Z,3.00
2019-01-09T08:00:22.002Z,3.00
2019-01-09T08:02:50.848Z,2.90
2019-01-09T08:05:19.794Z,3.00
2019-01-09T08:07:53.917Z,3.00
2019-01-09T08:10:18.935Z,3.00
2019-01-09T08:12:47.694Z,3.00
2019-01-09T08:15:16.583Z,3.00
2019-01-09T08:17:45.324Z,3.00
2019-01-09T08:20:14.349Z,3.00
2019-01-09T08:22:43.488Z,3.00
2019-01-09T08:25:12.155Z,3.00
2019-01-09T08:27:40.875Z,2.90
2019-01-09T08:30:10.570Z,3.00
2019-01-09T08:32:39.238Z,2.90
2019-01-09T08:35:08.130Z,2.90
2019-01-09T08:37:37.156Z,2.90
2019-01-09T08:40:07.609Z,2.80
2019-01-09T08:42:36.420Z,2.80
2019-01-09T08:45:06.207Z,2.80
2019-01-09T08:47:34.890Z,2.80
2019-01-09T08:50:03.687Z,2.90
2019-01-09T08:52:32.947Z,2.80
2019-01-09T08:55:01.674Z,2.80
2019-01-09T08:57:30.335Z,2.80
2019-01-09T08:59:59.154Z,2.80
2019-01-09T09:02:27.822Z,2.80
2019-01-09T09:04:56.525Z,2.80
2019-01-09T09:07:26.750Z,2.90
2019-01-09T09:09:55.743Z,2.90
2019-01-09T09:12:24.414Z,2.90
2019-01-09T09:14:53.746Z,2.90
2019-01-09T09:17:22.671Z,2.90
2019-01-09T09:19:51.603Z,2.90
2019-01-09T09:22:20.640Z,2.90
2019-01-09T09:24:49.326Z,2.80
2019-01-09T09:27:18.030Z,2.80
2019-01-09T09:29:47.242Z,2.90
2019-01-09T09:32:15.986Z,3.00
2019-01-09T09:34:44.687Z,3.00
2019-01-09T09:37:13.450Z,3.00
2019-01-09T09:39:42.211Z,3.10
2019-01-09T09:42:11.367Z,3.10
2019-01-09T09:44:40.815Z,3.10
2019-01-09T09:47:09.815Z,3.10
2019-01-09T09:49:38.722Z,3.10
2019-01-09T09:52:07.524Z,3.20
2019-01-09T09:54:36.579Z,3.10
2019-01-09T09:57:05.714Z,3.20
2019-01-09T09:59:35.071Z,3.20
2019-01-09T10:02:03.907Z,3.20
2019-01-09T10:04:32.799Z,3.30
2019-01-09T10:07:01.674Z,3.50
2019-01-09T10:09:30.511Z,3.60
2019-01-09T10:11:59.626Z,3.50
2019-01-09T10:14:28.570Z,3.50
2019-01-09T10:16:57.615Z,3.60
2019-01-09T10:19:26.404Z,3.60
2019-01-09T10:21:55.227Z,3.50
2019-01-09T10:24:24.050Z,3.50
2019-01-09T10:26:54.174Z,3.50
2019-01-09T10:29:23.123Z,3.50
2019-01-09T10:31:51.902Z,3.50
2019-01-09T10:34:20.874Z,3.50
2019-01-09T10:36:51.743Z,3.50
2019-01-09T10:39:20.785Z,3.50
2019-01-09T10:41:49.747Z,3.50
2019-01-09T10:44:18.975Z,3.60
2019-01-09T10:46:47.900Z,3.60
2019-01-09T10:49:16.697Z,3.60
2019-01-09T10:51:45.560Z,3.60
2019-01-09T10:54:14.418Z,3.60
2019-01-09T10:56:43.498Z,3.60
2019-01-09T10:59:12.486Z,3.70
2019-01-09T11:01:41.196Z,3.70
2019-01-09T11:04:10.102Z,3.70
2019-01-09T11:06:38.873Z,3.70
2019-01-09T11:09:08.639Z,3.60
2019-01-09T11:11:37.635Z,3.60
2019-01-09T11:14:06.880Z,3.70
2019-01-09T11:16:35.646Z,3.70
2019-01-09T11:19:04.809Z,3.70
2019-01-09T11:21:33.522Z,3.80
2019-01-09T11:24:02.495Z,3.80
2019-01-09T11:26:31.186Z,3.80
2019-01-09T11:29:00.270Z,3.80
2019-01-09T11:31:29.225Z,3.70
2019-01-09T11:33:58.345Z,3.80
2019-01-09T11:36:27.111Z,3.80
2019-01-09T11:38:56.355Z,3.90
2019-01-09T11:41:25.042Z,3.90
2019-01-09T11:43:54.540Z,3.90
2019-01-09T11:46:23.262Z,4.00
2019-01-09T11:48:52.116Z,4.00
2019-01-09T11:51:20.902Z,3.90
2019-01-09T11:53:49.782Z,3.90
2019-01-09T11:56:18.748Z,3.90
2019-01-09T11:58:47.725Z,4.00
2019-01-09T12:01:16.376Z,4.00
2019-01-09T12:03:45.127Z,4.00
2019-01-09T12:06:13.914Z,3.90
2019-01-09T12:08:42.604Z,4.00
2019-01-09T12:11:11.270Z,3.90
2019-01-09T12:13:40.708Z,3.90
2019-01-09T12:16:09.747Z,3.90
2019-01-09T12:18:38.429Z,3.90
2019-01-09T12:21:16.423Z,3.90
2019-01-09T12:23:37.937Z,3.90
2019-01-09T12:26:06.911Z,3.80
2019-01-09T12:28:35.928Z,3.80
2019-01-09T12:31:04.739Z,3.80
2019-01-09T12:33:33.480Z,3.80
2019-01-09T12:36:02.551Z,3.80
2019-01-09T12:38:31.292Z,3.80
2019-01-09T12:41:00.004Z,3.70
2019-01-09T12:43:28.711Z,3.80
2019-01-09T12:45:57.614Z,3.80
2019-01-09T12:48:26.726Z,3.80
2019-01-09T12:50:56.204Z,3.80
2019-01-09T12:53:33.626Z,3.70
2019-01-09T12:55:56.163Z,3.70
2019-01-09T12:58:25.274Z,3.80
2019-01-09T13:00:54.097Z,3.70
2019-01-09T13:03:23.228Z,3.70
2019-01-09T13:05:52.199Z,3.80
2019-01-09T13:08:20.933Z,3.80
2019-01-09T13:10:49.744Z,3.80
2019-01-09T13:13:18.466Z,3.80
2019-01-09T13:15:47.298Z,3.80
2019-01-09T13:18:16.023Z,3.80
2019-01-09T13:20:44.966Z,3.80
2019-01-09T13:23:13.807Z,3.90
2019-01-09T13:25:42.663Z,3.90
2019-01-09T13:28:11.605Z,3.90
2019-01-09T13:30:40.514Z,3.90
2019-01-09T13:33:09.266Z,3.90
2019-01-09T13:35:38.469Z,3.90
2019-01-09T13:38:07.283Z,3.90
2019-01-09T13:40:36.438Z,3.80
2019-01-09T13:43:05.198Z,3.90
2019-01-09T13:45:34.227Z,3.90
2019-01-09T13:48:02.916Z,3.90
2019-01-09T13:50:31.834Z,3.90
2019-01-09T13:53:01.283Z,3.90
2019-01-09T13:55:29.972Z,3.90
2019-01-09T13:57:58.771Z,3.90
2019-01-09T14:00:30.684Z,3.90
2019-01-09T14:02:59.397Z,3.90
2019-01-09T14:05:28.426Z,4.00
2019-01-09T14:07:57.350Z,3.90
2019-01-09T14:10:27.126Z,3.90
2019-01-09T14:12:55.905Z,4.00
2019-01-09T14:15:24.650Z,4.00
2019-01-09T14:17:53.357Z,4.00
2019-01-09T14:20:22.719Z,4.00
2019-01-09T14:22:51.457Z,3.90
2019-01-09T14:25:20.119Z,3.90
2019-01-09T14:27:49.073Z,3.90
2019-01-09T14:30:26.168Z,3.90
2019-01-09T14:32:55.235Z,4.00
2019-01-09T14:35:24.150Z,3.90
2019-01-09T14:37:53.005Z,3.90
2019-01-09T14:40:21.921Z,3.90
2019-01-09T14:42:53.522Z,3.80
2019-01-09T14:45:22.261Z,3.80
2019-01-09T14:47:51.135Z,3.80
2019-01-09T14:50:21.795Z,3.80
2019-01-09T14:52:53.595Z,3.80
2019-01-09T14:55:23.729Z,3.80
2019-01-09T14:57:52.849Z,3.80
2019-01-09T15:00:26.449Z,3.80
2019-01-09T15:02:55.437Z,3.80
2019-01-09T15:05:24.373Z,3.70
2019-01-09T15:07:53.728Z,3.70
2019-01-09T15:10:27.954Z,3.60
2019-01-09T15:12:57.052Z,3.50
2019-01-09T15:15:26.186Z,3.40
2019-01-09T15:17:54.991Z,3.50
2019-01-09T15:20:24.119Z,3.50
2019-01-09T15:22:53.129Z,3.50
2019-01-09T15:25:21.842Z,3.50
2019-01-09T15:27:50.583Z,3.50
2019-01-09T15:30:21.514Z,3.50
2019-01-09T15:32:51.548Z,3.50
2019-01-09T15:35:20.822Z,3.50
2019-01-09T15:37:49.636Z,3.50
2019-01-09T15:40:20.878Z,3.50
2019-01-09T15:42:50.221Z,3.50
2019-01-09T15:45:19.300Z,3.50
2019-01-09T15:47:48.318Z,3.50
2019-01-09T15:50:18.333Z,3.50
2019-01-09T15:52:47.095Z,3.50
2019-01-09T15:55:17.368Z,3.50
2019-01-09T15:57:46.618Z,3.50
2019-01-09T16:00:27.029Z,3.50
2019-01-09T16:02:55.903Z,3.50
2019-01-09T16:05:24.802Z,3.40
2019-01-09T16:07:54.570Z,3.50
2019-01-09T16:10:23.496Z,3.50
2019-01-09T16:12:52.471Z,3.50
2019-01-09T16:15:21.270Z,3.50
2019-01-09T16:17:50.096Z,3.40
2019-01-09T16:20:19.650Z,3.40
2019-01-09T16:22:48.709Z,3.40
2019-01-09T16:25:17.462Z,3.30
2019-01-09T16:27:46.135Z,3.30
2019-01-09T16:30:46.470Z,3.30
2019-01-09T16:33:15.422Z,3.30
2019-01-09T16:35:44.518Z,3.30
2019-01-09T16:38:13.331Z,3.30
2019-01-09T16:40:45.178Z,3.30
2019-01-09T16:43:14.194Z,3.30
2019-01-09T16:45:45.104Z,3.30
2019-01-09T16:48:13.860Z,3.30
2019-01-09T16:50:42.774Z,3.30
2019-01-09T16:53:11.808Z,3.30
2019-01-09T16:55:41.387Z,3.20
2019-01-09T16:58:10.170Z,3.20
2019-01-09T17:00:39.383Z,3.30
2019-01-09T17:03:08.122Z,3.30
2019-01-09T17:05:37.283Z,3.30
2019-01-09T17:08:06.472Z,3.30
2019-01-09T17:10:35.305Z,3.30
2019-01-09T17:13:04.233Z,3.20
2019-01-09T17:15:33.344Z,3.20
2019-01-09T17:18:02.401Z,3.20
2019-01-09T17:20:31.214Z,3.30
2019-01-09T17:23:00.044Z,3.30
2019-01-09T17:25:28.746Z,3.20
2019-01-09T17:27:57.553Z,3.20
2019-01-09T17:30:27.674Z,3.30
2019-01-09T17:32:56.510Z,3.30
2019-01-09T17:35:25.183Z,3.30
2019-01-09T17:37:54.843Z,3.30
2019-01-09T17:40:23.975Z,3.40
2019-01-09T17:42:52.724Z,3.40
2019-01-09T17:45:21.429Z,3.40
2019-01-09T17:47:50.118Z,3.40
2019-01-09T17:50:25.486Z,3.40
2019-01-09T17:52:54.654Z,3.40
2019-01-09T17:55:23.507Z,3.40
2019-01-09T17:57:52.562Z,3.40
2019-01-09T18:00:24.017Z,3.40
2019-01-09T18:02:54.154Z,3.40
2019-01-09T18:05:23.023Z,3.30
2019-01-09T18:07:52.398Z,3.20
2019-01-09T18:10:22.031Z,3.30
2019-01-09T18:12:51.857Z,3.30
2019-01-09T18:15:22.310Z,3.30
2019-01-09T18:17:51.451Z,3.30
2019-01-09T18:20:20.595Z,3.30
2019-01-09T18:22:50.025Z,3.30
2019-01-09T18:25:21.176Z,3.30
2019-01-09T18:27:50.491Z,3.40
2019-01-09T18:30:37.838Z,3.40
2019-01-09T18:33:23.017Z,3.50
2019-01-09T18:36:02.998Z,3.40
2019-01-09T18:38:53.373Z,3.50
2019-01-09T18:41:29.190Z,3.50
2019-01-09T18:44:20.015Z,3.50
2019-01-09T18:47:29.167Z,3.50
2019-01-09T18:50:35.467Z,3.40
2019-01-09T18:53:14.112Z,3.50
2019-01-09T18:55:43.800Z,3.40
2019-01-09T18:58:16.162Z,3.40
2019-01-09T19:00:45.008Z,3.40
2019-01-09T19:03:14.318Z,3.40
2019-01-09T19:05:46.336Z,3.40
2019-01-09T19:08:15.549Z,3.40
2019-01-09T19:10:44.349Z,3.40
2019-01-09T19:13:13.096Z,3.40
2019-01-09T19:15:41.855Z,3.40
2019-01-09T19:18:10.618Z,3.50
2019-01-09T19:20:39.463Z,3.50
2019-01-09T19:23:08.271Z,3.50
2019-01-09T19:25:39.010Z,3.50
2019-01-09T19:28:08.294Z,3.50
2019-01-09T19:30:39.439Z,3.50
2019-01-09T19:33:08.276Z,3.50
2019-01-09T19:35:37.186Z,3.60
2019-01-09T19:38:06.245Z,3.60
2019-01-09T19:40:34.948Z,3.60
2019-01-09T19:43:03.639Z,3.60
2019-01-09T19:45:32.851Z,3.70
2019-01-09T19:48:01.791Z,3.70
2019-01-09T19:50:30.553Z,3.70
2019-01-09T19:52:59.440Z,3.80
2019-01-09T19:55:28.423Z,3.80
2019-01-09T19:57:58.114Z,3.80
2019-01-09T20:00:27.067Z,3.80
2019-01-09T20:02:56.026Z,3.80
2019-01-09T20:05:24.850Z,3.90
2019-01-09T20:07:57.629Z,3.80
2019-01-09T20:10:27.881Z,3.90
2019-01-09T20:12:57.599Z,3.90
2019-01-09T20:15:27.879Z,3.90
2019-01-09T20:17:57.112Z,3.90
2019-01-09T20:20:26.265Z,3.90
2019-01-09T20:22:55.134Z,3.90
2019-01-09T20:25:24.106Z,3.90
2019-01-09T20:27:52.859Z,4.00
2019-01-09T20:30:24.689Z,4.00
2019-01-09T20:32:56.300Z,4.00
2019-01-09T20:35:25.090Z,4.00
2019-01-09T20:37:56.704Z,4.10
2019-01-09T20:40:26.070Z,4.00
2019-01-09T20:42:54.918Z,4.00
2019-01-09T20:45:24.031Z,4.10
2019-01-09T20:47:53.185Z,4.00
2019-01-09T20:50:24.569Z,4.00
2019-01-09T20:52:53.562Z,4.10
2019-01-09T20:55:22.475Z,4.10
2019-01-09T20:57:51.391Z,4.10
2019-01-09T21:00:26.109Z,4.10
2019-01-09T21:02:57.154Z,4.20
2019-01-09T21:05:29.242Z,4.20
2019-01-09T21:07:58.268Z,4.30
2019-01-09T21:10:27.504Z,4.20
2019-01-09T21:12:56.440Z,4.20
2019-01-09T21:15:25.746Z,4.30
2019-01-09T21:17:54.719Z,4.30
2019-01-09T21:20:23.594Z,4.30
2019-01-09T21:22:55.873Z,4.20
2019-01-09T21:25:25.165Z,4.20
2019-01-09T21:27:54.023Z,4.30
2019-01-09T21:30:23.811Z,4.20
2019-01-09T21:32:52.696Z,4.20
2019-01-09T21:35:21.687Z,4.20
2019-01-09T21:37:50.487Z,4.30
2019-01-09T21:40:24.589Z,4.20
2019-01-09T21:42:53.710Z,4.30
2019-01-09T21:45:23.057Z,4.30
2019-01-09T21:47:52.038Z,4.30
2019-01-09T21:50:21.083Z,4.30
2019-01-09T21:52:50.194Z,4.30
2019-01-09T21:55:19.353Z,4.20
2019-01-09T21:57:48.294Z,4.10
2019-01-09T22:00:22.418Z,4.10
2019-01-09T22:02:51.347Z,4.10
2019-01-09T22:05:21.149Z,4.10
2019-01-09T22:07:50.234Z,4.10
2019-01-09T22:10:21.731Z,4.00
2019-01-09T22:12:50.706Z,4.00
2019-01-09T22:15:19.650Z,4.00
2019-01-09T22:17:48.498Z,4.00
2019-01-09T22:20:17.299Z,4.00
2019-01-09T22:22:46.259Z,4.00
2019-01-09T22:25:15.419Z,4.00
2019-01-09T22:27:44.557Z,4.00
2019-01-09T22:30:16.155Z,3.90
2019-01-09T22:32:45.651Z,3.90
2019-01-09T22:35:15.296Z,3.80
2019-01-09T22:37:45.517Z,3.80
2019-01-09T22:40:16.063Z,3.80
2019-01-09T22:42:45.057Z,3.80
2019-01-09T22:45:14.735Z,3.80
2019-01-09T22:47:43.569Z,3.80
2019-01-09T22:50:14.612Z,3.80
2019-01-09T22:52:43.872Z,3.70
2019-01-09T22:55:12.982Z,3.70
2019-01-09T22:57:42.007Z,3.70
2019-01-09T23:00:46.766Z,3.60
2019-01-09T23:03:16.119Z,3.60
2019-01-09T23:05:45.118Z,3.60
2019-01-09T23:08:14.277Z,3.60
2019-01-09T23:10:43.151Z,3.60
2019-01-09T23:13:12.219Z,3.60
2019-01-09T23:15:50.394Z,3.60
2019-01-09T23:18:19.572Z,3.60
2019-01-09T23:20:51.383Z,3.50
2019-01-09T23:23:20.483Z,3.50
2019-01-09T23:25:54.651Z,3.50
2019-01-09T23:28:22.884Z,3.50
2019-01-09T23:30:52.140Z,3.50
2019-01-09T23:33:21.473Z,3.40
2019-01-09T23:35:50.565Z,3.40
2019-01-09T23:38:19.446Z,3.50
2019-01-09T23:40:48.346Z,3.50
2019-01-09T23:43:17.564Z,3.50
2019-01-09T23:45:49.052Z,3.50
2019-01-09T23:48:17.974Z,3.50
2019-01-09T23:50:46.939Z,3.50
2019-01-09T23:53:15.761Z,3.40
2019-01-09T23:55:44.658Z,3.40
2019-01-09T23:58:13.859Z,3.40
